createdAt,value
2022-12-15T06:49:11.950Z,3.77
2022-12-15T06:51:58.354Z,3.77
2022-12-15T06:54:45.064Z,3.16
2022-12-15T06:57:30.651Z,3.20
2022-12-15T07:00:16.626Z,3.18
2022-12-15T07:03:07.175Z,3.32
2022-12-15T07:06:05.776Z,3.35
2022-12-15T07:08:53.960Z,3.31
2022-12-15T07:11:40.842Z,3.22
2022-12-15T07:14:28.155Z,3.21
2022-12-15T07:17:14.834Z,3.17
2022-12-15T07:20:02.096Z,3.15
2022-12-15T07:22:52.355Z,3.07
2022-12-15T07:25:38.338Z,3.25
2022-12-15T07:28:25.953Z,3.30
2022-12-15T07:31:12.778Z,3.29
2022-12-15T07:33:59.390Z,3.40
2022-12-15T07:36:51.491Z,3.44
2022-12-15T07:39:37.961Z,3.44
2022-12-15T07:42:23.621Z,3.51
2022-12-15T07:45:15.495Z,3.50
2022-12-15T07:48:00.990Z,3.60
2022-12-15T07:50:47.026Z,3.60
2022-12-15T07:53:36.963Z,3.63
2022-12-15T07:56:22.402Z,3.74
2022-12-15T07:59:08.999Z,3.79
2022-12-15T08:01:54.753Z,3.77
2022-12-15T08:04:41.052Z,3.66
2022-12-15T08:07:26.177Z,3.77
2022-12-15T08:10:11.724Z,3.86
2022-12-15T08:12:57.363Z,3.84
2022-12-15T08:15:43.260Z,3.99
2022-12-15T08:18:29.502Z,4.04
2022-12-15T08:21:15.171Z,4.12
2022-12-15T08:24:01.131Z,4.14
2022-12-15T08:26:50.092Z,4.32
2022-12-15T08:29:52.980Z,4.38
2022-12-15T08:32:40.505Z,4.39
2022-12-15T08:35:55.128Z,4.36
2022-12-15T08:38:42.746Z,4.31
2022-12-15T08:41:30.554Z,4.51
2022-12-15T08:44:17.096Z,4.38
2022-12-15T08:47:02.789Z,4.51
2022-12-15T08:49:50.274Z,4.55
2022-12-15T08:52:35.799Z,4.51
2022-12-15T08:55:23.677Z,4.56
2022-12-15T08:58:09.030Z,4.51
2022-12-15T09:01:01.184Z,4.63
2022-12-15T09:03:47.417Z,4.55
2022-12-15T09:06:34.839Z,4.52
2022-12-15T09:09:20.550Z,4.48
2022-12-15T09:12:06.617Z,4.48
2022-12-15T09:14:51.937Z,4.43
2022-12-15T09:17:39.543Z,4.43
2022-12-15T09:20:25.036Z,4.44
2022-12-15T09:23:14.428Z,4.49
2022-12-15T09:26:11.067Z,4.56
2022-12-15T09:28:56.696Z,4.47
2022-12-15T09:31:44.694Z,4.47
2022-12-15T09:34:30.178Z,4.47
2022-12-15T09:37:15.877Z,4.42
2022-12-15T09:40:01.526Z,4.39
2022-12-15T09:43:04.914Z,4.29
2022-12-15T09:46:16.565Z,4.41
2022-12-15T09:49:05.396Z,4.37
2022-12-15T09:51:56.265Z,4.34
2022-12-15T09:54:43.528Z,4.39
2022-12-15T09:57:45.296Z,4.55
2022-12-15T10:00:38.713Z,4.55
2022-12-15T10:03:36.421Z,4.49
2022-12-15T10:06:50.815Z,4.54
2022-12-15T10:09:37.299Z,4.61
2022-12-15T10:12:30.128Z,4.54
2022-12-15T10:15:25.293Z,4.71
2022-12-15T10:18:23.001Z,4.83
2022-12-15T10:21:14.751Z,4.81
2022-12-15T10:25:09.312Z,5.00
2022-12-15T10:28:08.265Z,4.83
2022-12-15T10:31:04.820Z,4.99
2022-12-15T10:33:58.298Z,5.23
2022-12-15T10:36:51.133Z,5.40
2022-12-15T10:39:42.074Z,5.73
2022-12-15T10:42:29.820Z,5.87
2022-12-15T10:45:33.947Z,6.00
2022-12-15T10:48:20.391Z,5.95
2022-12-15T10:51:25.987Z,5.96
2022-12-15T10:54:15.773Z,5.96
2022-12-15T10:57:16.056Z,5.93
2022-12-15T11:00:13.927Z,5.90
2022-12-15T11:03:00.483Z,6.14
2022-12-15T11:05:55.277Z,6.61
2022-12-15T11:08:42.726Z,7.43
2022-12-15T11:11:52.842Z,8.43
2022-12-15T11:14:49.190Z,11.06
2022-12-15T11:17:40.994Z,9.62
2022-12-15T11:20:34.879Z,8.85
2022-12-15T11:23:51.105Z,8.24
2022-12-15T11:26:43.865Z,8.12
2022-12-15T11:29:54.219Z,7.50
2022-12-15T11:32:42.835Z,7.42
2022-12-15T11:35:46.556Z,7.19
2022-12-15T11:38:37.778Z,7.38
2022-12-15T11:41:57.929Z,7.03
2022-12-15T11:44:52.844Z,7.46
2022-12-15T11:47:44.944Z,7.26
2022-12-15T11:50:56.361Z,7.26
2022-12-15T11:54:14.991Z,7.39
2022-12-15T11:57:42.702Z,7.18
2022-12-15T12:00:31.967Z,6.97
2022-12-15T12:03:17.431Z,6.97
2022-12-15T12:06:39.779Z,6.78
2022-12-15T12:09:37.218Z,6.77
2022-12-15T12:12:22.929Z,6.59
2022-12-15T12:15:11.381Z,6.69
2022-12-15T12:18:04.505Z,6.71
2022-12-15T12:20:58.776Z,6.65
2022-12-15T12:23:50.068Z,6.58
2022-12-15T12:26:40.831Z,6.72
2022-12-15T12:29:26.021Z,7.08
2022-12-15T12:32:16.040Z,7.32
2022-12-15T12:35:32.323Z,7.49
2022-12-15T12:38:25.188Z,7.53
2022-12-15T12:41:19.032Z,7.29
2022-12-15T12:44:27.591Z,7.28
2022-12-15T12:47:26.468Z,7.44
2022-12-15T12:50:16.207Z,7.71
2022-12-15T12:53:03.150Z,8.01
2022-12-15T12:55:48.407Z,8.23
2022-12-15T12:58:41.403Z,9.27
2022-12-15T13:01:27.138Z,12.05
2022-12-15T13:04:30.955Z,10.83
